Terminal Aerodrome Forecast
Issued by NWS

Home | Current Version | Previous Version | Text Only | Print | Product List | Glossary On
Versions: 1 2 3 4 5 6 7 8 9 10 11 12 13 14 15 16 17 18 19 20 21 22 23 24 25 26 27 28 29 30 31 32 33 34 35 36 37 38
000
FTUS43 KPAH 231720
TAFOWB
TAF
KOWB 231720Z 2318/2418 33013G21KT P6SM OVC011
      TEMPO 2318/2322 5SM HZ BKN009
     FM240000 32007KT P6SM BKN020
     FM240600 VRB03KT P6SM BKN025
     FM241400 VRB04KT P6SM SCT030=

USA.gov is the U.S. government's official web portal to all federal, state and local government web resources and services.